sensor_id;sensor_type;location;lat;lon;timestamp;P1;durP1;ratioP1;P2;durP2;ratioP2
85093;SDS011;75432;49.056;12.004;2024-02-26T00:00:46;34.77;;;15.07;;
85093;SDS011;75432;49.056;12.004;2024-02-26T00:03:13;36.27;;;16.73;;
85093;SDS011;75432;49.056;12.004;2024-02-26T00:05:39;43.07;;;17.40;;
85093;SDS011;75432;49.056;12.004;2024-02-26T00:08:06;39.53;;;16.83;;
85093;SDS011;75432;49.056;12.004;2024-02-26T00:10:32;38.43;;;17.23;;
85093;SDS011;75432;49.056;12.004;2024-02-26T00:12:59;41.37;;;16.97;;
85093;SDS011;75432;49.056;12.004;2024-02-26T00:15:26;38.47;;;17.33;;
85093;SDS011;75432;49.056;12.004;2024-02-26T00:17:54;27.97;;;12.93;;
85093;SDS011;75432;49.056;12.004;2024-02-26T00:20:21;35.13;;;15.30;;
85093;SDS011;75432;49.056;12.004;2024-02-26T00:22:47;31.67;;;14.23;;
85093;SDS011;75432;49.056;12.004;2024-02-26T00:25:14;36.20;;;15.03;;
85093;SDS011;75432;49.056;12.004;2024-02-26T00:27:40;42.77;;;16.43;;
85093;SDS011;75432;49.056;12.004;2024-02-26T00:30:08;40.20;;;16.90;;
85093;SDS011;75432;49.056;12.004;2024-02-26T00:32:35;39.13;;;16.03;;
85093;SDS011;75432;49.056;12.004;2024-02-26T00:35:01;35.90;;;17.20;;
85093;SDS011;75432;49.056;12.004;2024-02-26T00:37:28;33.27;;;15.10;;
85093;SDS011;75432;49.056;12.004;2024-02-26T00:39:55;32.63;;;15.93;;
85093;SDS011;75432;49.056;12.004;2024-02-26T00:42:22;37.03;;;15.57;;
85093;SDS011;75432;49.056;12.004;2024-02-26T00:44:48;35.97;;;14.80;;
85093;SDS011;75432;49.056;12.004;2024-02-26T00:47:15;34.87;;;15.47;;
85093;SDS011;75432;49.056;12.004;2024-02-26T00:49:41;35.80;;;15.27;;
85093;SDS011;75432;49.056;12.004;2024-02-26T00:52:08;40.43;;;17.73;;
85093;SDS011;75432;49.056;12.004;2024-02-26T00:54:34;38.53;;;15.30;;
85093;SDS011;75432;49.056;12.004;2024-02-26T00:57:01;32.93;;;15.07;;
85093;SDS011;75432;49.056;12.004;2024-02-26T00:59:27;35.90;;;16.23;;
85093;SDS011;75432;49.056;12.004;2024-02-26T01:01:54;40.80;;;16.10;;
85093;SDS011;75432;49.056;12.004;2024-02-26T01:04:20;30.83;;;14.40;;
85093;SDS011;75432;49.056;12.004;2024-02-26T01:06:47;34.87;;;14.17;;
85093;SDS011;75432;49.056;12.004;2024-02-26T01:09:13;34.60;;;14.10;;
85093;SDS011;75432;49.056;12.004;2024-02-26T01:11:40;37.93;;;17.10;;
85093;SDS011;75432;49.056;12.004;2024-02-26T01:14:07;31.20;;;14.73;;
85093;SDS011;75432;49.056;12.004;2024-02-26T01:16:33;39.67;;;17.03;;
85093;SDS011;75432;49.056;12.004;2024-02-26T01:18:59;29.30;;;12.73;;
85093;SDS011;75432;49.056;12.004;2024-02-26T01:21:26;28.47;;;13.50;;
85093;SDS011;75432;49.056;12.004;2024-02-26T01:23:55;32.53;;;13.97;;
85093;SDS011;75432;49.056;12.004;2024-02-26T01:26:21;27.50;;;13.40;;
85093;SDS011;75432;49.056;12.004;2024-02-26T01:28:48;29.13;;;13.23;;
85093;SDS011;75432;49.056;12.004;2024-02-26T01:31:14;32.83;;;14.20;;
85093;SDS011;75432;49.056;12.004;2024-02-26T01:33:41;28.53;;;13.63;;
85093;SDS011;75432;49.056;12.004;2024-02-26T01:36:08;30.20;;;13.40;;
85093;SDS011;75432;49.056;12.004;2024-02-26T01:38:34;24.67;;;12.77;;
85093;SDS011;75432;49.056;12.004;2024-02-26T01:41:01;28.47;;;13.73;;
85093;SDS011;75432;49.056;12.004;2024-02-26T01:43:27;30.77;;;13.23;;
85093;SDS011;75432;49.056;12.004;2024-02-26T01:45:54;21.50;;;9.87;;
85093;SDS011;75432;49.056;12.004;2024-02-26T01:48:21;24.13;;;11.23;;
85093;SDS011;75432;49.056;12.004;2024-02-26T01:50:48;25.17;;;10.90;;
85093;SDS011;75432;49.056;12.004;2024-02-26T01:53:15;21.13;;;11.03;;
85093;SDS011;75432;49.056;12.004;2024-02-26T01:55:43;23.13;;;10.03;;
85093;SDS011;75432;49.056;12.004;2024-02-26T01:58:10;23.13;;;9.73;;
85093;SDS011;75432;49.056;12.004;2024-02-26T02:00:37;21.57;;;8.17;;
85093;SDS011;75432;49.056;12.004;2024-02-26T02:03:05;18.07;;;9.60;;
85093;SDS011;75432;49.056;12.004;2024-02-26T02:05:32;17.53;;;8.30;;
85093;SDS011;75432;49.056;12.004;2024-02-26T02:07:59;22.80;;;9.20;;
85093;SDS011;75432;49.056;12.004;2024-02-26T02:10:26;22.53;;;10.10;;
85093;SDS011;75432;49.056;12.004;2024-02-26T02:12:53;20.17;;;9.57;;
85093;SDS011;75432;49.056;12.004;2024-02-26T02:15:19;19.37;;;8.77;;
85093;SDS011;75432;49.056;12.004;2024-02-26T02:17:46;18.83;;;8.47;;
85093;SDS011;75432;49.056;12.004;2024-02-26T02:20:17;27.63;;;12.17;;
85093;SDS011;75432;49.056;12.004;2024-02-26T02:22:45;23.53;;;10.67;;
85093;SDS011;75432;49.056;12.004;2024-02-26T02:25:12;21.77;;;10.43;;
85093;SDS011;75432;49.056;12.004;2024-02-26T02:27:39;20.77;;;9.77;;
85093;SDS011;75432;49.056;12.004;2024-02-26T02:30:06;21.07;;;9.30;;
85093;SDS011;75432;49.056;12.004;2024-02-26T02:32:35;20.63;;;9.30;;
85093;SDS011;75432;49.056;12.004;2024-02-26T02:35:04;14.47;;;7.77;;
85093;SDS011;75432;49.056;12.004;2024-02-26T02:37:31;17.27;;;8.70;;
85093;SDS011;75432;49.056;12.004;2024-02-26T02:39:57;22.80;;;10.73;;
85093;SDS011;75432;49.056;12.004;2024-02-26T02:42:24;20.73;;;9.07;;
85093;SDS011;75432;49.056;12.004;2024-02-26T02:44:51;19.07;;;8.90;;
85093;SDS011;75432;49.056;12.004;2024-02-26T02:47:18;10.63;;;6.40;;
85093;SDS011;75432;49.056;12.004;2024-02-26T02:49:44;20.13;;;7.77;;
85093;SDS011;75432;49.056;12.004;2024-02-26T02:52:11;17.97;;;8.77;;
85093;SDS011;75432;49.056;12.004;2024-02-26T02:54:37;16.20;;;7.97;;
85093;SDS011;75432;49.056;12.004;2024-02-26T02:57:06;16.47;;;8.20;;
85093;SDS011;75432;49.056;12.004;2024-02-26T02:59:33;11.43;;;6.87;;
85093;SDS011;75432;49.056;12.004;2024-02-26T03:02:01;13.03;;;6.80;;
85093;SDS011;75432;49.056;12.004;2024-02-26T03:04:27;14.30;;;6.93;;
85093;SDS011;75432;49.056;12.004;2024-02-26T03:06:55;14.37;;;6.70;;
85093;SDS011;75432;49.056;12.004;2024-02-26T03:09:22;15.30;;;6.80;;
85093;SDS011;75432;49.056;12.004;2024-02-26T03:11:49;12.33;;;6.07;;
85093;SDS011;75432;49.056;12.004;2024-02-26T03:14:16;10.60;;;5.83;;
85093;SDS011;75432;49.056;12.004;2024-02-26T03:16:42;12.90;;;6.77;;
85093;SDS011;75432;49.056;12.004;2024-02-26T03:19:09;11.50;;;5.67;;
85093;SDS011;75432;49.056;12.004;2024-02-26T03:21:35;10.53;;;5.70;;
85093;SDS011;75432;49.056;12.004;2024-02-26T03:24:02;12.60;;;6.80;;
85093;SDS011;75432;49.056;12.004;2024-02-26T03:26:29;13.03;;;6.87;;
85093;SDS011;75432;49.056;12.004;2024-02-26T03:28:57;11.20;;;6.13;;
85093;SDS011;75432;49.056;12.004;2024-02-26T03:31:24;10.47;;;6.17;;
85093;SDS011;75432;49.056;12.004;2024-02-26T03:33:50;10.53;;;6.07;;
85093;SDS011;75432;49.056;12.004;2024-02-26T03:36:17;11.93;;;7.13;;
85093;SDS011;75432;49.056;12.004;2024-02-26T03:38:43;13.83;;;8.37;;
85093;SDS011;75432;49.056;12.004;2024-02-26T03:41:10;9.73;;;5.60;;
85093;SDS011;75432;49.056;12.004;2024-02-26T03:43:36;8.63;;;4.60;;
85093;SDS011;75432;49.056;12.004;2024-02-26T03:46:03;10.17;;;4.80;;
85093;SDS011;75432;49.056;12.004;2024-02-26T03:48:29;6.43;;;3.90;;
85093;SDS011;75432;49.056;12.004;2024-02-26T03:50:56;8.73;;;4.90;;
85093;SDS011;75432;49.056;12.004;2024-02-26T03:53:23;8.37;;;3.93;;
85093;SDS011;75432;49.056;12.004;2024-02-26T03:55:49;6.10;;;3.87;;
85093;SDS011;75432;49.056;12.004;2024-02-26T03:58:18;6.33;;;3.80;;
85093;SDS011;75432;49.056;12.004;2024-02-26T04:00:45;7.67;;;4.70;;
85093;SDS011;75432;49.056;12.004;2024-02-26T04:03:14;6.07;;;4.27;;
85093;SDS011;75432;49.056;12.004;2024-02-26T04:05:40;6.97;;;3.80;;
85093;SDS011;75432;49.056;12.004;2024-02-26T04:08:07;7.80;;;4.10;;
85093;SDS011;75432;49.056;12.004;2024-02-26T04:10:34;5.60;;;4.10;;
85093;SDS011;75432;49.056;12.004;2024-02-26T04:13:07;4.97;;;3.40;;
85093;SDS011;75432;49.056;12.004;2024-02-26T04:15:34;6.23;;;3.50;;
85093;SDS011;75432;49.056;12.004;2024-02-26T04:18:01;7.13;;;3.97;;
85093;SDS011;75432;49.056;12.004;2024-02-26T04:20:29;7.97;;;4.80;;
85093;SDS011;75432;49.056;12.004;2024-02-26T04:22:56;6.20;;;3.60;;
85093;SDS011;75432;49.056;12.004;2024-02-26T04:25:22;5.97;;;4.23;;
85093;SDS011;75432;49.056;12.004;2024-02-26T04:27:49;4.27;;;3.53;;
85093;SDS011;75432;49.056;12.004;2024-02-26T04:30:15;6.20;;;3.93;;
85093;SDS011;75432;49.056;12.004;2024-02-26T04:32:43;7.27;;;4.53;;
85093;SDS011;75432;49.056;12.004;2024-02-26T04:35:10;8.73;;;4.20;;
85093;SDS011;75432;49.056;12.004;2024-02-26T04:37:37;5.50;;;3.47;;
85093;SDS011;75432;49.056;12.004;2024-02-26T04:40:04;6.87;;;4.00;;
85093;SDS011;75432;49.056;12.004;2024-02-26T04:42:31;5.17;;;3.37;;
85093;SDS011;75432;49.056;12.004;2024-02-26T04:44:58;9.47;;;4.17;;
85093;SDS011;75432;49.056;12.004;2024-02-26T04:47:24;5.27;;;3.83;;
85093;SDS011;75432;49.056;12.004;2024-02-26T04:49:51;4.90;;;3.17;;
85093;SDS011;75432;49.056;12.004;2024-02-26T04:52:18;5.93;;;3.80;;
85093;SDS011;75432;49.056;12.004;2024-02-26T04:54:45;4.87;;;3.43;;
85093;SDS011;75432;49.056;12.004;2024-02-26T04:57:12;6.20;;;3.63;;
85093;SDS011;75432;49.056;12.004;2024-02-26T04:59:38;6.27;;;4.33;;
85093;SDS011;75432;49.056;12.004;2024-02-26T05:02:07;4.63;;;3.37;;
85093;SDS011;75432;49.056;12.004;2024-02-26T05:04:33;3.40;;;3.00;;
85093;SDS011;75432;49.056;12.004;2024-02-26T05:07:00;6.03;;;4.10;;
85093;SDS011;75432;49.056;12.004;2024-02-26T05:09:26;4.90;;;3.87;;
85093;SDS011;75432;49.056;12.004;2024-02-26T05:11:53;4.83;;;3.50;;
85093;SDS011;75432;49.056;12.004;2024-02-26T05:14:19;5.87;;;3.33;;
85093;SDS011;75432;49.056;12.004;2024-02-26T05:16:46;4.37;;;3.20;;
85093;SDS011;75432;49.056;12.004;2024-02-26T05:19:13;2.97;;;2.20;;
85093;SDS011;75432;49.056;12.004;2024-02-26T05:21:39;5.57;;;3.87;;
85093;SDS011;75432;49.056;12.004;2024-02-26T05:24:06;4.93;;;3.20;;
85093;SDS011;75432;49.056;12.004;2024-02-26T05:26:34;5.93;;;2.53;;
85093;SDS011;75432;49.056;12.004;2024-02-26T05:29:00;4.67;;;3.57;;
85093;SDS011;75432;49.056;12.004;2024-02-26T05:31:27;4.57;;;3.03;;
85093;SDS011;75432;49.056;12.004;2024-02-26T05:33:54;5.13;;;3.80;;
85093;SDS011;75432;49.056;12.004;2024-02-26T05:36:21;8.80;;;4.20;;
85093;SDS011;75432;49.056;12.004;2024-02-26T05:38:49;3.53;;;2.67;;
85093;SDS011;75432;49.056;12.004;2024-02-26T05:41:16;6.03;;;3.87;;
85093;SDS011;75432;49.056;12.004;2024-02-26T05:43:42;4.53;;;2.80;;
85093;SDS011;75432;49.056;12.004;2024-02-26T05:46:09;5.73;;;3.57;;
85093;SDS011;75432;49.056;12.004;2024-02-26T05:48:36;5.13;;;3.60;;
85093;SDS011;75432;49.056;12.004;2024-02-26T05:51:03;5.37;;;2.80;;
85093;SDS011;75432;49.056;12.004;2024-02-26T05:53:30;6.73;;;3.07;;
85093;SDS011;75432;49.056;12.004;2024-02-26T05:55:56;5.93;;;3.77;;
85093;SDS011;75432;49.056;12.004;2024-02-26T05:58:23;4.53;;;3.37;;
85093;SDS011;75432;49.056;12.004;2024-02-26T06:00:49;6.30;;;4.47;;
85093;SDS011;75432;49.056;12.004;2024-02-26T06:03:16;6.23;;;3.67;;
85093;SDS011;75432;49.056;12.004;2024-02-26T06:05:42;6.73;;;3.77;;
85093;SDS011;75432;49.056;12.004;2024-02-26T06:08:10;7.13;;;4.53;;
85093;SDS011;75432;49.056;12.004;2024-02-26T06:10:36;8.00;;;4.90;;
85093;SDS011;75432;49.056;12.004;2024-02-26T06:13:03;6.93;;;4.27;;
85093;SDS011;75432;49.056;12.004;2024-02-26T06:15:29;7.13;;;4.57;;
85093;SDS011;75432;49.056;12.004;2024-02-26T06:17:56;8.30;;;4.97;;
85093;SDS011;75432;49.056;12.004;2024-02-26T06:20:23;9.80;;;4.73;;
85093;SDS011;75432;49.056;12.004;2024-02-26T06:22:49;7.90;;;4.93;;
85093;SDS011;75432;49.056;12.004;2024-02-26T06:25:16;5.77;;;4.40;;
85093;SDS011;75432;49.056;12.004;2024-02-26T06:27:42;7.77;;;4.63;;
85093;SDS011;75432;49.056;12.004;2024-02-26T06:30:09;7.93;;;5.37;;
85093;SDS011;75432;49.056;12.004;2024-02-26T06:32:37;7.37;;;3.97;;
85093;SDS011;75432;49.056;12.004;2024-02-26T06:35:04;7.77;;;4.60;;
85093;SDS011;75432;49.056;12.004;2024-02-26T06:37:35;8.10;;;4.90;;
85093;SDS011;75432;49.056;12.004;2024-02-26T06:40:02;9.47;;;4.77;;
85093;SDS011;75432;49.056;12.004;2024-02-26T06:42:35;7.70;;;4.23;;
85093;SDS011;75432;49.056;12.004;2024-02-26T06:45:03;12.53;;;5.33;;
85093;SDS011;75432;49.056;12.004;2024-02-26T06:47:30;9.80;;;5.60;;
85093;SDS011;75432;49.056;12.004;2024-02-26T06:49:57;6.40;;;4.00;;
85093;SDS011;75432;49.056;12.004;2024-02-26T06:52:24;8.13;;;4.23;;
85093;SDS011;75432;49.056;12.004;2024-02-26T06:54:51;8.10;;;4.27;;
85093;SDS011;75432;49.056;12.004;2024-02-26T06:57:19;6.13;;;3.73;;
85093;SDS011;75432;49.056;12.004;2024-02-26T06:59:46;9.43;;;4.83;;
85093;SDS011;75432;49.056;12.004;2024-02-26T07:02:13;11.20;;;5.83;;
85093;SDS011;75432;49.056;12.004;2024-02-26T07:04:40;10.10;;;5.27;;
85093;SDS011;75432;49.056;12.004;2024-02-26T07:07:07;11.53;;;6.00;;
85093;SDS011;75432;49.056;12.004;2024-02-26T07:09:35;12.83;;;6.53;;
85093;SDS011;75432;49.056;12.004;2024-02-26T07:12:01;9.67;;;5.10;;
85093;SDS011;75432;49.056;12.004;2024-02-26T07:14:28;10.87;;;5.80;;
85093;SDS011;75432;49.056;12.004;2024-02-26T07:16:55;11.13;;;6.43;;
85093;SDS011;75432;49.056;12.004;2024-02-26T07:19:22;8.93;;;5.30;;
85093;SDS011;75432;49.056;12.004;2024-02-26T07:21:49;10.80;;;6.03;;
85093;SDS011;75432;49.056;12.004;2024-02-26T07:24:17;10.37;;;6.27;;
85093;SDS011;75432;49.056;12.004;2024-02-26T07:26:44;10.57;;;6.43;;
85093;SDS011;75432;49.056;12.004;2024-02-26T07:29:11;9.77;;;5.50;;
85093;SDS011;75432;49.056;12.004;2024-02-26T07:31:37;7.53;;;5.37;;
85093;SDS011;75432;49.056;12.004;2024-02-26T07:34:04;7.70;;;5.50;;
85093;SDS011;75432;49.056;12.004;2024-02-26T07:36:31;10.17;;;6.20;;
85093;SDS011;75432;49.056;12.004;2024-02-26T07:38:57;9.87;;;5.57;;
85093;SDS011;75432;49.056;12.004;2024-02-26T07:41:24;7.87;;;5.13;;
85093;SDS011;75432;49.056;12.004;2024-02-26T07:43:51;9.80;;;5.60;;
85093;SDS011;75432;49.056;12.004;2024-02-26T07:46:18;9.13;;;5.13;;
85093;SDS011;75432;49.056;12.004;2024-02-26T07:48:45;9.97;;;5.17;;
85093;SDS011;75432;49.056;12.004;2024-02-26T07:51:12;8.53;;;5.03;;
85093;SDS011;75432;49.056;12.004;2024-02-26T07:53:40;7.57;;;4.43;;
85093;SDS011;75432;49.056;12.004;2024-02-26T07:56:07;6.33;;;4.50;;
85093;SDS011;75432;49.056;12.004;2024-02-26T07:58:35;6.70;;;3.87;;
85093;SDS011;75432;49.056;12.004;2024-02-26T08:01:01;6.53;;;4.00;;
85093;SDS011;75432;49.056;12.004;2024-02-26T08:03:28;7.47;;;4.60;;
85093;SDS011;75432;49.056;12.004;2024-02-26T08:05:55;6.93;;;4.30;;
85093;SDS011;75432;49.056;12.004;2024-02-26T08:08:22;5.43;;;3.70;;
85093;SDS011;75432;49.056;12.004;2024-02-26T08:10:49;6.03;;;4.57;;
85093;SDS011;75432;49.056;12.004;2024-02-26T08:13:15;8.77;;;4.67;;
85093;SDS011;75432;49.056;12.004;2024-02-26T08:15:42;6.00;;;3.90;;
85093;SDS011;75432;49.056;12.004;2024-02-26T08:18:09;6.90;;;3.70;;
85093;SDS011;75432;49.056;12.004;2024-02-26T08:20:35;5.30;;;3.60;;
85093;SDS011;75432;49.056;12.004;2024-02-26T08:23:02;7.17;;;4.17;;
85093;SDS011;75432;49.056;12.004;2024-02-26T08:25:29;5.57;;;4.07;;
85093;SDS011;75432;49.056;12.004;2024-02-26T08:27:56;5.70;;;4.30;;
85093;SDS011;75432;49.056;12.004;2024-02-26T08:30:22;3.60;;;2.93;;
85093;SDS011;75432;49.056;12.004;2024-02-26T08:32:49;6.47;;;3.63;;
85093;SDS011;75432;49.056;12.004;2024-02-26T08:35:18;5.10;;;3.50;;
85093;SDS011;75432;49.056;12.004;2024-02-26T08:37:45;4.80;;;3.60;;
85093;SDS011;75432;49.056;12.004;2024-02-26T08:40:13;7.17;;;3.80;;
85093;SDS011;75432;49.056;12.004;2024-02-26T08:42:40;7.00;;;4.13;;
85093;SDS011;75432;49.056;12.004;2024-02-26T08:45:07;6.43;;;4.10;;
85093;SDS011;75432;49.056;12.004;2024-02-26T08:47:34;7.67;;;4.90;;
85093;SDS011;75432;49.056;12.004;2024-02-26T08:50:01;7.57;;;4.37;;
85093;SDS011;75432;49.056;12.004;2024-02-26T08:52:28;8.50;;;5.10;;
85093;SDS011;75432;49.056;12.004;2024-02-26T08:54:54;5.53;;;4.20;;
85093;SDS011;75432;49.056;12.004;2024-02-26T08:57:21;6.00;;;4.13;;
85093;SDS011;75432;49.056;12.004;2024-02-26T08:59:47;7.83;;;4.57;;
85093;SDS011;75432;49.056;12.004;2024-02-26T09:02:14;6.93;;;4.20;;
85093;SDS011;75432;49.056;12.004;2024-02-26T09:04:40;7.23;;;5.27;;
85093;SDS011;75432;49.056;12.004;2024-02-26T09:07:07;6.70;;;4.57;;
85093;SDS011;75432;49.056;12.004;2024-02-26T09:09:33;7.00;;;4.00;;
85093;SDS011;75432;49.056;12.004;2024-02-26T09:12:00;6.77;;;4.80;;
85093;SDS011;75432;49.056;12.004;2024-02-26T09:14:27;5.13;;;3.83;;
85093;SDS011;75432;49.056;12.004;2024-02-26T09:16:54;6.37;;;3.83;;
85093;SDS011;75432;49.056;12.004;2024-02-26T09:19:20;4.97;;;3.83;;
85093;SDS011;75432;49.056;12.004;2024-02-26T09:21:47;7.47;;;4.40;;
85093;SDS011;75432;49.056;12.004;2024-02-26T09:24:13;7.67;;;5.00;;
85093;SDS011;75432;49.056;12.004;2024-02-26T09:26:41;5.45;;;3.90;;
85093;SDS011;75432;49.056;12.004;2024-02-26T09:29:07;7.57;;;4.47;;
85093;SDS011;75432;49.056;12.004;2024-02-26T09:31:34;6.03;;;4.22;;
85093;SDS011;75432;49.056;12.004;2024-02-26T09:34:01;5.53;;;3.73;;
85093;SDS011;75432;49.056;12.004;2024-02-26T09:36:28;4.82;;;3.00;;
85093;SDS011;75432;49.056;12.004;2024-02-26T09:38:55;5.45;;;3.47;;
85093;SDS011;75432;49.056;12.004;2024-02-26T09:41:30;3.97;;;2.92;;
85093;SDS011;75432;49.056;12.004;2024-02-26T09:43:57;3.80;;;2.97;;
85093;SDS011;75432;49.056;12.004;2024-02-26T09:46:25;4.78;;;3.17;;
85093;SDS011;75432;49.056;12.004;2024-02-26T09:48:52;5.45;;;3.03;;
85093;SDS011;75432;49.056;12.004;2024-02-26T09:51:19;5.38;;;3.20;;
85093;SDS011;75432;49.056;12.004;2024-02-26T09:53:49;3.83;;;2.78;;
85093;SDS011;75432;49.056;12.004;2024-02-26T09:56:18;4.75;;;3.33;;
85093;SDS011;75432;49.056;12.004;2024-02-26T09:58:45;3.63;;;2.78;;
85093;SDS011;75432;49.056;12.004;2024-02-26T10:01:18;3.75;;;2.75;;
85093;SDS011;75432;49.056;12.004;2024-02-26T10:03:48;3.35;;;2.78;;
85093;SDS011;75432;49.056;12.004;2024-02-26T10:06:21;4.07;;;2.87;;
85093;SDS011;75432;49.056;12.004;2024-02-26T10:08:48;6.72;;;3.30;;
85093;SDS011;75432;49.056;12.004;2024-02-26T10:11:15;3.67;;;2.90;;
85093;SDS011;75432;49.056;12.004;2024-02-26T10:13:43;4.47;;;2.90;;
85093;SDS011;75432;49.056;12.004;2024-02-26T10:16:09;5.40;;;3.00;;
85093;SDS011;75432;49.056;12.004;2024-02-26T10:18:46;3.63;;;2.90;;
85093;SDS011;75432;49.056;12.004;2024-02-26T10:21:24;3.78;;;2.78;;
85093;SDS011;75432;49.056;12.004;2024-02-26T10:23:51;4.45;;;2.72;;
85093;SDS011;75432;49.056;12.004;2024-02-26T10:26:18;2.67;;;2.40;;
85093;SDS011;75432;49.056;12.004;2024-02-26T10:28:45;2.87;;;2.43;;
85093;SDS011;75432;49.056;12.004;2024-02-26T10:31:17;3.38;;;2.10;;
85093;SDS011;75432;49.056;12.004;2024-02-26T10:33:45;3.38;;;2.38;;
85093;SDS011;75432;49.056;12.004;2024-02-26T10:36:12;2.20;;;2.00;;
85093;SDS011;75432;49.056;12.004;2024-02-26T10:38:38;2.65;;;2.17;;
85093;SDS011;75432;49.056;12.004;2024-02-26T10:41:08;2.10;;;1.90;;
85093;SDS011;75432;49.056;12.004;2024-02-26T10:43:41;2.10;;;1.90;;
85093;SDS011;75432;49.056;12.004;2024-02-26T10:46:08;2.30;;;2.10;;
85093;SDS011;75432;49.056;12.004;2024-02-26T10:48:35;3.90;;;2.00;;
85093;SDS011;75432;49.056;12.004;2024-02-26T10:51:03;1.77;;;1.67;;
85093;SDS011;75432;49.056;12.004;2024-02-26T10:53:30;4.15;;;1.67;;
85093;SDS011;75432;49.056;12.004;2024-02-26T10:56:00;2.90;;;1.60;;
85093;SDS011;75432;49.056;12.004;2024-02-26T10:58:29;1.45;;;1.35;;
85093;SDS011;75432;49.056;12.004;2024-02-26T11:00:58;2.22;;;1.70;;
85093;SDS011;75432;49.056;12.004;2024-02-26T11:03:25;1.70;;;1.60;;
85093;SDS011;75432;49.056;12.004;2024-02-26T11:05:52;2.33;;;1.60;;
85093;SDS011;75432;49.056;12.004;2024-02-26T11:08:22;1.73;;;1.63;;
85093;SDS011;75432;49.056;12.004;2024-02-26T11:10:52;2.00;;;1.45;;
85093;SDS011;75432;49.056;12.004;2024-02-26T11:13:21;3.58;;;1.73;;
85093;SDS011;75432;49.056;12.004;2024-02-26T11:15:49;2.08;;;1.42;;
85093;SDS011;75432;49.056;12.004;2024-02-26T11:18:18;2.20;;;1.70;;
85093;SDS011;75432;49.056;12.004;2024-02-26T11:20:46;2.08;;;1.70;;
85093;SDS011;75432;49.056;12.004;2024-02-26T11:23:14;2.28;;;1.70;;
85093;SDS011;75432;49.056;12.004;2024-02-26T11:25:41;1.50;;;1.40;;
85093;SDS011;75432;49.056;12.004;2024-02-26T11:28:12;3.03;;;1.70;;
85093;SDS011;75432;49.056;12.004;2024-02-26T11:30:44;2.05;;;1.38;;
85093;SDS011;75432;49.056;12.004;2024-02-26T11:33:14;1.40;;;1.30;;
85093;SDS011;75432;49.056;12.004;2024-02-26T11:35:41;2.38;;;1.25;;
85093;SDS011;75432;49.056;12.004;2024-02-26T11:38:08;1.52;;;1.42;;
85093;SDS011;75432;49.056;12.004;2024-02-26T11:40:44;1.65;;;1.55;;
85093;SDS011;75432;49.056;12.004;2024-02-26T11:43:11;1.20;;;1.10;;
85093;SDS011;75432;49.056;12.004;2024-02-26T11:48:14;2.97;;;1.50;;
85093;SDS011;75432;49.056;12.004;2024-02-26T11:50:52;1.10;;;1.10;;
85093;SDS011;75432;49.056;12.004;2024-02-26T11:56:34;2.55;;;1.50;;
85093;SDS011;75432;49.056;12.004;2024-02-26T11:59:03;1.35;;;1.20;;
85093;SDS011;75432;49.056;12.004;2024-02-26T12:01:39;1.52;;;1.10;;
85093;SDS011;75432;49.056;12.004;2024-02-26T12:04:07;1.48;;;1.38;;
85093;SDS011;75432;49.056;12.004;2024-02-26T12:07:00;1.90;;;1.20;;
85093;SDS011;75432;49.056;12.004;2024-02-26T12:09:34;1.48;;;1.38;;
85093;SDS011;75432;49.056;12.004;2024-02-26T12:12:06;0.98;;;0.98;;
85093;SDS011;75432;49.056;12.004;2024-02-26T12:14:41;3.38;;;2.30;;
85093;SDS011;75432;49.056;12.004;2024-02-26T12:17:22;3.28;;;2.42;;
85093;SDS011;75432;49.056;12.004;2024-02-26T12:19:50;1.25;;;1.20;;
85093;SDS011;75432;49.056;12.004;2024-02-26T12:22:19;2.20;;;1.10;;
85093;SDS011;75432;49.056;12.004;2024-02-26T12:24:46;0.70;;;0.70;;
85093;SDS011;75432;49.056;12.004;2024-02-26T12:27:12;1.67;;;1.20;;
85093;SDS011;75432;49.056;12.004;2024-02-26T12:29:39;0.80;;;0.80;;
85093;SDS011;75432;49.056;12.004;2024-02-26T12:32:06;1.10;;;1.00;;
85093;SDS011;75432;49.056;12.004;2024-02-26T12:34:34;1.27;;;1.17;;
85093;SDS011;75432;49.056;12.004;2024-02-26T12:37:00;1.90;;;1.17;;
85093;SDS011;75432;49.056;12.004;2024-02-26T12:39:27;1.33;;;1.23;;
85093;SDS011;75432;49.056;12.004;2024-02-26T12:41:55;2.00;;;1.35;;
85093;SDS011;75432;49.056;12.004;2024-02-26T12:44:26;3.22;;;1.20;;
85093;SDS011;75432;49.056;12.004;2024-02-26T12:46:59;2.05;;;1.27;;
85093;SDS011;75432;49.056;12.004;2024-02-26T12:49:26;1.30;;;1.30;;
85093;SDS011;75432;49.056;12.004;2024-02-26T12:51:53;1.17;;;1.08;;
85093;SDS011;75432;49.056;12.004;2024-02-26T12:54:20;1.45;;;1.20;;
85093;SDS011;75432;49.056;12.004;2024-02-26T12:56:46;2.25;;;1.10;;
85093;SDS011;75432;49.056;12.004;2024-02-26T12:59:13;3.70;;;1.30;;
85093;SDS011;75432;49.056;12.004;2024-02-26T13:01:40;1.70;;;1.20;;
85093;SDS011;75432;49.056;12.004;2024-02-26T13:04:07;1.00;;;1.00;;
85093;SDS011;75432;49.056;12.004;2024-02-26T13:06:34;1.10;;;1.00;;
85093;SDS011;75432;49.056;12.004;2024-02-26T13:09:01;1.48;;;1.30;;
85093;SDS011;75432;49.056;12.004;2024-02-26T13:11:28;1.00;;;0.93;;
85093;SDS011;75432;49.056;12.004;2024-02-26T13:13:55;2.65;;;1.20;;
85093;SDS011;75432;49.056;12.004;2024-02-26T13:16:23;0.80;;;0.80;;
85093;SDS011;75432;49.056;12.004;2024-02-26T13:18:51;2.35;;;0.88;;
85093;SDS011;75432;49.056;12.004;2024-02-26T13:21:18;0.60;;;0.55;;
85093;SDS011;75432;49.056;12.004;2024-02-26T13:23:48;0.60;;;0.60;;
85093;SDS011;75432;49.056;12.004;2024-02-26T13:26:16;0.55;;;0.55;;
85093;SDS011;75432;49.056;12.004;2024-02-26T13:28:43;0.55;;;0.55;;
85093;SDS011;75432;49.056;12.004;2024-02-26T13:31:09;1.15;;;0.77;;
85093;SDS011;75432;49.056;12.004;2024-02-26T13:33:36;0.70;;;0.70;;
85093;SDS011;75432;49.056;12.004;2024-02-26T13:36:03;0.93;;;0.90;;
85093;SDS011;75432;49.056;12.004;2024-02-26T13:38:30;1.38;;;0.90;;
85093;SDS011;75432;49.056;12.004;2024-02-26T13:40:56;0.70;;;0.70;;
85093;SDS011;75432;49.056;12.004;2024-02-26T13:43:23;0.90;;;0.90;;
85093;SDS011;75432;49.056;12.004;2024-02-26T13:45:49;0.82;;;0.82;;
85093;SDS011;75432;49.056;12.004;2024-02-26T13:48:16;1.08;;;0.60;;
85093;SDS011;75432;49.056;12.004;2024-02-26T13:50:43;1.33;;;1.10;;
85093;SDS011;75432;49.056;12.004;2024-02-26T13:53:12;2.78;;;2.25;;
85093;SDS011;75432;49.056;12.004;2024-02-26T13:55:39;3.25;;;2.83;;
85093;SDS011;75432;49.056;12.004;2024-02-26T13:58:09;4.63;;;3.67;;
85093;SDS011;75432;49.056;12.004;2024-02-26T14:00:38;5.40;;;3.40;;
85093;SDS011;75432;49.056;12.004;2024-02-26T14:03:05;4.65;;;3.40;;
85093;SDS011;75432;49.056;12.004;2024-02-26T14:05:32;5.80;;;3.55;;
85093;SDS011;75432;49.056;12.004;2024-02-26T14:07:58;4.55;;;3.28;;
85093;SDS011;75432;49.056;12.004;2024-02-26T14:10:25;4.47;;;3.30;;
85093;SDS011;75432;49.056;12.004;2024-02-26T14:12:52;4.50;;;2.72;;
85093;SDS011;75432;49.056;12.004;2024-02-26T14:15:19;4.45;;;3.63;;
85093;SDS011;75432;49.056;12.004;2024-02-26T14:17:45;4.55;;;3.03;;
85093;SDS011;75432;49.056;12.004;2024-02-26T14:20:20;5.13;;;3.15;;
85093;SDS011;75432;49.056;12.004;2024-02-26T14:22:47;4.57;;;2.60;;
85093;SDS011;75432;49.056;12.004;2024-02-26T14:25:14;3.20;;;2.65;;
85093;SDS011;75432;49.056;12.004;2024-02-26T14:27:41;3.90;;;2.47;;
85093;SDS011;75432;49.056;12.004;2024-02-26T14:30:07;4.55;;;2.97;;
85093;SDS011;75432;49.056;12.004;2024-02-26T14:32:34;2.60;;;2.33;;
85093;SDS011;75432;49.056;12.004;2024-02-26T14:35:04;5.03;;;2.83;;